Marble Hill, Missouri
Current Conditions -  °F | °C
As of 6:53 PM on Thursday 18 Dec 2014 (Local Time) from KCGI Reporting Station
Overcast Overcast  
Wind Chill: 36°   Ceiling: 1600
Heat Index: 36°   Visibility: 10mi
Dew Point: 33°   Wind: 0mph
Humidity: 89%   Direction: NA
Pressure: 30.26"   Gusts: NA
Location:  37.31°N, 89.97°W
Report Text: KCGI 190053Z AUTO 00000KT 10SM BKN016 OVC024 02/01 A3026 RMK AO2 SLP249 T00220006 TSNO
Loading
Personal Weather Stations






























Interactive Weather Map New forecast layout! Learn more

10-Day Weather Forecast

Advertisements
Track Severe Weather on mobile